Time;durP1;ratioP1;P1;durP2;ratioP2;P2;SDS_P1;SDS_P2;PMS_P1;PMS_P2;Temp;Humidity;BMP_temperature;BMP_pressure;BME280_temperature;BME280_humidity;BME280_pressure;Samples;Min_cycle;Max_cycle;Signal;HPM_P1;HPM_P2
2022/01/22 00:00:40;;;;;;;19.15;3.65;;;6.10;99.90;;;;;;5046884;28;20500;-64
2022/01/22 00:03:06;;;;;;;16.80;3.22;;;6.10;99.90;;;;;;5046640;28;20099;-64
2022/01/22 00:05:32;;;;;;;18.90;2.80;;;6.10;99.90;;;;;;5049122;28;20041;-65
2022/01/22 00:07:58;;;;;;;15.88;2.88;;;6.10;99.90;;;;;;5046585;28;20174;-64
2022/01/22 00:10:24;;;;;;;20.60;2.83;;;6.10;99.90;;;;;;5064862;28;20128;-64
2022/01/22 00:15:23;;;;;;;13.05;2.35;;;6.10;99.90;;;;;;5046620;28;20052;-64
2022/01/22 00:17:50;;;;;;;11.90;2.47;;;6.10;99.90;;;;;;5038057;28;20037;-63
2022/01/22 00:20:18;;;;;;;18.80;2.72;;;6.10;99.90;;;;;;5051256;28;20037;-64
2022/01/22 00:22:44;;;;;;;13.82;2.85;;;6.10;99.90;;;;;;5046248;28;20037;-64
2022/01/22 00:25:12;;;;;;;11.13;2.08;;;6.10;99.90;;;;;;5047001;28;20025;-64
2022/01/22 00:27:39;;;;;;;15.27;2.60;;;6.10;99.90;;;;;;5063198;28;20044;-64
2022/01/22 00:30:08;;;;;;;11.88;2.13;;;6.20;99.90;;;;;;5041478;28;20350;-64
2022/01/22 00:32:35;;;;;;;12.23;2.45;;;6.10;99.90;;;;;;5044979;28;20048;-65
2022/01/22 00:35:01;;;;;;;10.18;2.22;;;6.20;99.90;;;;;;5040396;28;20408;-64
2022/01/22 00:37:26;;;;;;;10.77;1.98;;;6.20;99.90;;;;;;5045604;28;20045;-64
2022/01/22 00:39:52;;;;;;;10.98;2.08;;;6.20;99.90;;;;;;5062219;28;20126;-64
2022/01/22 00:42:18;;;;;;;16.33;2.75;;;6.20;99.90;;;;;;5047870;28;20130;-65
2022/01/22 00:44:46;;;;;;;9.68;2.13;;;6.20;99.90;;;;;;5061754;28;20036;-63
2022/01/22 00:47:11;;;;;;;8.60;1.60;;;6.20;99.90;;;;;;5063062;28;20049;-63
2022/01/22 00:49:37;;;;;;;9.13;1.77;;;6.20;99.90;;;;;;5039530;28;20047;-65
2022/01/22 00:52:04;;;;;;;10.20;2.63;;;6.20;99.90;;;;;;5057424;28;20033;-64
2022/01/22 00:54:30;;;;;;;16.42;2.28;;;6.20;99.90;;;;;;5039667;28;20136;-64
2022/01/22 00:56:57;;;;;;;9.15;1.80;;;6.20;99.90;;;;;;5045480;28;20037;-63
2022/01/22 00:59:22;;;;;;;10.45;2.22;;;6.20;99.90;;;;;;5056130;28;20151;-65
2022/01/22 01:01:48;;;;;;;8.85;2.15;;;6.20;99.90;;;;;;5044748;28;20136;-64
2022/01/22 01:04:14;;;;;;;8.15;2.22;;;6.20;99.90;;;;;;5051735;28;20422;-64
2022/01/22 01:06:39;;;;;;;11.45;2.45;;;6.20;99.90;;;;;;5040726;28;20198;-64
2022/01/22 01:09:08;;;;;;;9.57;2.05;;;6.20;99.90;;;;;;5023507;28;20041;-64
2022/01/22 01:11:39;;;;;;;7.72;2.05;;;6.20;99.90;;;;;;5029663;28;20040;-64
2022/01/22 01:14:07;;;;;;;11.77;2.10;;;6.20;99.90;;;;;;5045033;28;20082;-64
2022/01/22 01:32:57;;;;;;;12.77;2.47;;;6.30;99.90;;;;;;5041297;28;22684;-65
2022/01/22 01:35:22;;;;;;;9.10;2.33;;;6.30;99.90;;;;;;5039763;28;20091;-64
2022/01/22 01:37:50;;;;;;;5.65;1.60;;;6.30;99.90;;;;;;5043793;28;20061;-64
2022/01/22 01:40:19;;;;;;;5.70;2.22;;;6.30;99.90;;;;;;5062863;28;20048;-63
2022/01/22 01:42:57;;;;;;;6.43;1.70;;;6.30;99.90;;;;;;5044541;28;20037;-65
2022/01/22 01:45:23;;;;;;;7.97;1.50;;;6.30;99.90;;;;;;5055191;28;20045;-63
2022/01/22 01:47:57;;;;;;;7.20;1.83;;;6.30;99.90;;;;;;5062843;28;20059;-65
2022/01/22 01:50:23;;;;;;;8.05;1.95;;;6.30;99.90;;;;;;5044983;28;20037;-64
2022/01/22 01:53:02;;;;;;;6.70;1.77;;;6.30;99.90;;;;;;5061295;28;20077;-65
2022/01/22 01:57:23;;;;;;;10.90;2.58;;;6.30;99.90;;;;;;5043174;28;20055;-64
2022/01/22 01:58:20;;;;;;;6.93;1.80;;;6.30;99.90;;;;;;5037378;28;20113;-63
2022/01/22 02:00:45;;;;;;;12.32;1.88;;;6.30;99.90;;;;;;5045172;28;20060;-63
2022/01/22 02:03:13;;;;;;;8.10;2.15;;;6.30;99.90;;;;;;5041994;28;20045;-64
2022/01/22 02:05:39;;;;;;;13.10;2.08;;;6.30;99.90;;;;;;5044316;28;20059;-64
2022/01/22 02:08:05;;;;;;;8.55;1.95;;;6.30;99.90;;;;;;5029101;28;20056;-63
2022/01/22 02:10:35;;;;;;;11.10;1.83;;;6.30;99.90;;;;;;5060502;28;20053;-64
2022/01/22 02:14:01;;;;;;;6.57;2.20;;;6.30;99.90;;;;;;5046201;28;20048;-64
2022/01/22 02:23:32;;;;;;;4.63;1.20;;;6.30;99.90;;;;;;5059465;28;20144;-64
2022/01/22 02:24:07;;;;;;;5.80;1.48;;;6.30;99.90;;;;;;5041991;28;20135;-63
2022/01/22 02:26:33;;;;;;;8.65;1.55;;;6.30;99.90;;;;;;5053471;28;20046;-63
2022/01/22 02:28:58;;;;;;;7.57;1.50;;;6.30;99.90;;;;;;5046731;28;20039;-63
2022/01/22 02:31:39;;;;;;;6.32;1.10;;;6.30;99.90;;;;;;5056837;28;20112;-63
2022/01/22 02:34:21;;;;;;;4.20;1.20;;;6.30;99.90;;;;;;5043568;28;20045;-65
2022/01/22 02:37:00;;;;;;;4.47;1.15;;;6.30;99.90;;;;;;5039208;28;20041;-63
2022/01/22 02:39:39;;;;;;;7.28;0.98;;;6.30;99.90;;;;;;5045420;28;20495;-63
2022/01/22 02:42:05;;;;;;;4.65;1.05;;;6.30;99.90;;;;;;5043098;28;20047;-64
2022/01/22 02:44:36;;;;;;;6.68;1.00;;;6.30;99.90;;;;;;5041542;28;20037;-64
2022/01/22 02:47:05;;;;;;;2.33;0.90;;;6.30;99.90;;;;;;5023930;28;20121;-63
2022/01/22 02:49:31;;;;;;;4.22;0.95;;;6.30;99.90;;;;;;5033991;28;20080;-64
2022/01/22 02:52:03;;;;;;;4.68;1.02;;;6.30;99.90;;;;;;5042155;28;20124;-63
2022/01/22 02:54:29;;;;;;;4.07;1.00;;;6.30;99.90;;;;;;5038594;28;20065;-63
2022/01/22 02:56:54;;;;;;;3.47;1.00;;;6.30;99.90;;;;;;5057296;28;20079;-63
2022/01/22 02:59:22;;;;;;;4.85;1.00;;;6.30;99.90;;;;;;5044321;28;20098;-63
2022/01/22 03:01:49;;;;;;;9.77;1.58;;;6.30;99.90;;;;;;5044869;28;20158;-64
2022/01/22 03:04:15;;;;;;;7.65;1.40;;;6.30;99.90;;;;;;5027194;28;20119;-64
2022/01/22 03:06:40;;;;;;;10.35;1.65;;;6.30;99.90;;;;;;5041680;28;20125;-65
2022/01/22 03:09:11;;;;;;;6.68;1.50;;;6.30;99.90;;;;;;5044637;28;20041;-63
2022/01/22 03:11:46;;;;;;;6.38;1.52;;;6.30;99.90;;;;;;5043999;28;20045;-64
2022/01/22 03:19:43;;;;;;;8.80;1.58;;;6.20;99.90;;;;;;5047183;28;20053;-65
2022/01/22 03:22:16;;;;;;;6.78;1.23;;;6.30;99.90;;;;;;5064006;28;20052;-64
2022/01/22 03:27:29;;;;;;;7.53;1.65;;;6.20;99.90;;;;;;5049028;28;20051;-63
2022/01/22 03:29:56;;;;;;;5.60;1.67;;;6.20;99.90;;;;;;5050883;28;20461;-64
2022/01/22 03:32:23;;;;;;;5.65;1.38;;;6.20;99.90;;;;;;5049902;28;20033;-63
2022/01/22 03:35:54;;;;;;;7.97;1.60;;;6.20;99.90;;;;;;5045392;28;20069;-63
2022/01/22 03:37:46;;;;;;;6.95;1.38;;;6.20;99.90;;;;;;5031109;28;20090;-63
2022/01/22 03:40:14;;;;;;;8.90;1.75;;;6.20;99.90;;;;;;5032043;28;20365;-63
2022/01/22 03:42:40;;;;;;;9.13;1.60;;;6.20;99.90;;;;;;5048509;28;20132;-63
2022/01/22 03:45:09;;;;;;;7.68;1.88;;;6.10;99.90;;;;;;5046500;28;20036;-64
2022/01/22 03:47:35;;;;;;;9.98;1.35;;;6.10;99.90;;;;;;5027980;28;20041;-64
2022/01/22 03:50:01;;;;;;;4.72;1.40;;;6.10;99.90;;;;;;5047382;28;20041;-64
2022/01/22 03:52:27;;;;;;;4.72;1.40;;;6.10;99.90;;;;;;5052322;28;20103;-64
2022/01/22 03:54:52;;;;;;;5.88;1.40;;;6.10;99.90;;;;;;5046439;28;20052;-63
2022/01/22 03:57:18;;;;;;;11.75;1.45;;;6.10;99.90;;;;;;5043058;28;20151;-64
2022/01/22 03:59:45;;;;;;;3.15;0.95;;;6.10;99.90;;;;;;5046637;28;20032;-63
2022/01/22 04:02:44;;;;;;;7.35;1.20;;;6.10;99.90;;;;;;5048281;28;20056;-64
2022/01/22 04:05:01;;;;;;;5.00;1.23;;;6.10;99.90;;;;;;5042453;28;20437;-63
2022/01/22 04:09:56;;;;;;;5.13;1.20;;;6.10;99.90;;;;;;5047427;28;20049;-63
2022/01/22 04:12:25;;;;;;;5.17;1.10;;;6.10;99.90;;;;;;5062700;28;20389;-64
2022/01/22 04:14:59;;;;;;;4.82;1.35;;;6.10;99.90;;;;;;5037976;28;20292;-64
2022/01/22 04:24:49;;;;;;;9.05;1.42;;;6.20;99.90;;;;;;5042982;28;20052;-63
2022/01/22 04:25:50;;;;;;;4.10;1.40;;;6.20;99.90;;;;;;5056960;28;20392;-63
2022/01/22 04:28:15;;;;;;;6.15;1.40;;;6.10;99.90;;;;;;5063993;28;20119;-63
2022/01/22 04:30:41;;;;;;;3.55;1.13;;;6.20;99.90;;;;;;5055087;28;20069;-63
2022/01/22 04:33:06;;;;;;;5.80;1.30;;;6.10;99.90;;;;;;5045601;28;20043;-63
2022/01/22 04:35:32;;;;;;;7.95;1.60;;;6.20;99.90;;;;;;5045868;28;20050;-63
2022/01/22 04:37:58;;;;;;;3.03;1.23;;;6.10;99.90;;;;;;5044457;28;20194;-64
2022/01/22 04:40:24;;;;;;;4.15;1.30;;;6.20;99.90;;;;;;5048743;28;20217;-63
2022/01/22 04:42:50;;;;;;;4.38;1.45;;;6.10;99.90;;;;;;5047406;28;20041;-65
2022/01/22 04:45:39;;;;;;;5.50;1.63;;;6.10;99.90;;;;;;5050098;28;20041;-63
2022/01/22 04:48:51;;;;;;;3.65;1.98;;;6.20;99.90;;;;;;5047070;28;20056;-63
2022/01/22 04:56:23;;;;;;;3.67;1.13;;;6.20;99.90;;;;;;5043251;28;20132;-63
2022/01/22 04:58:48;;;;;;;4.40;1.45;;;6.20;99.90;;;;;;5044203;28;20460;-64
2022/01/22 05:01:14;;;;;;;2.97;1.02;;;6.20;99.90;;;;;;5062464;28;20037;-63
2022/01/22 05:03:40;;;;;;;6.40;0.85;;;6.20;99.90;;;;;;5047796;28;20377;-63
2022/01/22 05:06:06;;;;;;;10.43;1.30;;;6.10;99.90;;;;;;5045836;28;20039;-64
2022/01/22 05:08:33;;;;;;;5.03;1.27;;;6.10;99.90;;;;;;5038965;28;20091;-63
2022/01/22 05:10:59;;;;;;;6.20;1.10;;;6.10;99.90;;;;;;5040657;28;20442;-63
2022/01/22 05:13:24;;;;;;;5.35;0.90;;;6.10;99.90;;;;;;5047022;28;20091;-64
2022/01/22 05:15:50;;;;;;;4.95;0.88;;;6.10;99.90;;;;;;5039471;28;20221;-64
2022/01/22 05:18:16;;;;;;;5.13;1.15;;;6.10;99.90;;;;;;5060689;28;20041;-63
2022/01/22 05:20:48;;;;;;;6.15;1.10;;;6.10;99.90;;;;;;5047075;28;20041;-63
2022/01/22 05:23:19;;;;;;;4.93;1.05;;;6.10;99.90;;;;;;5061294;28;20071;-64
2022/01/22 05:25:51;;;;;;;;;;;6.10;99.90;;;;;;5056920;28;20162;-63
2022/01/22 05:39:24;;;;;;;2.88;1.08;;;6.10;99.90;;;;;;5024159;28;20053;-64
2022/01/22 05:41:51;;;;;;;6.82;1.10;;;6.10;99.90;;;;;;5058617;28;20037;-64
2022/01/22 05:44:18;;;;;;;4.40;0.90;;;6.10;99.90;;;;;;5039812;28;20376;-64
2022/01/22 05:46:43;;;;;;;5.50;0.95;;;6.10;99.90;;;;;;5045053;28;20044;-63
2022/01/22 05:49:09;;;;;;;2.75;0.98;;;6.10;99.90;;;;;;5029491;28;20033;-64
2022/01/22 05:51:38;;;;;;;4.55;0.93;;;6.10;99.90;;;;;;5042579;28;20040;-64
2022/01/22 05:59:41;;;;;;;4.28;1.05;;;6.10;99.90;;;;;;5055905;28;20124;-64
2022/01/22 06:02:17;;;;;;;5.60;1.05;;;6.10;99.90;;;;;;5042071;28;20171;-64
2022/01/22 06:04:44;;;;;;;5.85;1.00;;;6.10;99.90;;;;;;5045485;28;20044;-63
2022/01/22 06:07:12;;;;;;;4.57;1.10;;;6.10;99.90;;;;;;5041723;28;20134;-63
2022/01/22 06:09:43;;;;;;;6.72;1.20;;;6.10;99.90;;;;;;5045801;28;20049;-63
2022/01/22 06:14:38;;;;;;;7.43;1.20;;;6.10;99.90;;;;;;5034046;28;20048;-63
2022/01/22 06:17:03;;;;;;;7.85;1.50;;;6.10;99.90;;;;;;5058942;28;20048;-64
2022/01/22 06:19:29;;;;;;;5.75;1.30;;;6.10;99.90;;;;;;5059522;28;20049;-63
2022/01/22 06:21:55;;;;;;;8.07;1.40;;;6.10;99.90;;;;;;5040377;28;20068;-63
2022/01/22 06:24:22;;;;;;;7.43;1.45;;;6.10;99.90;;;;;;5041600;28;20045;-63
2022/01/22 06:26:48;;;;;;;3.28;1.40;;;6.10;99.90;;;;;;5044313;28;20057;-65
2022/01/22 06:29:14;;;;;;;5.97;1.27;;;6.10;99.90;;;;;;5045365;28;20461;-64
2022/01/22 06:31:40;;;;;;;5.55;1.30;;;6.10;99.90;;;;;;5061522;28;20041;-63
2022/01/22 06:34:06;;;;;;;5.72;1.48;;;6.10;99.90;;;;;;5045202;28;20049;-63
2022/01/22 06:36:32;;;;;;;6.60;1.45;;;6.10;99.90;;;;;;5039033;28;20033;-64
2022/01/22 06:39:11;;;;;;;5.47;1.77;;;6.10;99.90;;;;;;5044882;28;20404;-63
2022/01/22 06:41:44;;;;;;;11.57;2.38;;;6.10;99.90;;;;;;5062793;28;20052;-64
2022/01/22 06:44:11;;;;;;;8.43;1.60;;;6.10;99.90;;;;;;5043940;28;20041;-64
2022/01/22 06:46:37;;;;;;;11.82;2.10;;;6.10;99.90;;;;;;5039046;28;20118;-63
2022/01/22 06:49:03;;;;;;;8.48;2.67;;;6.10;99.90;;;;;;5044651;28;20053;-64
2022/01/22 06:51:28;;;;;;;11.30;2.40;;;6.10;99.90;;;;;;5062645;28;20048;-63
2022/01/22 06:53:54;;;;;;;10.25;2.30;;;6.10;99.90;;;;;;5050099;28;20477;-63
2022/01/22 06:56:22;;;;;;;10.93;2.28;;;6.10;99.90;;;;;;5048997;28;20459;-63
2022/01/22 06:58:48;;;;;;;7.18;2.03;;;6.10;99.90;;;;;;5049773;28;20037;-63
2022/01/22 07:01:15;;;;;;;6.57;2.00;;;6.10;99.90;;;;;;5041126;28;20038;-63
2022/01/22 07:03:40;;;;;;;7.88;2.42;;;6.10;99.90;;;;;;5042491;28;20105;-63
2022/01/22 07:06:06;;;;;;;8.75;2.03;;;6.10;99.90;;;;;;5064858;28;20404;-65
2022/01/22 07:08:32;;;;;;;10.10;2.60;;;6.10;99.90;;;;;;5051118;28;20037;-63
2022/01/22 07:10:57;;;;;;;14.63;2.55;;;6.10;99.90;;;;;;5034442;28;20064;-65
2022/01/22 07:13:23;;;;;;;8.57;2.42;;;6.10;99.90;;;;;;5042912;28;20136;-63
2022/01/22 07:15:49;;;;;;;6.43;2.30;;;6.20;99.90;;;;;;5039860;28;20115;-63
2022/01/22 07:18:14;;;;;;;9.75;2.55;;;6.10;99.90;;;;;;5031235;28;20487;-63
2022/01/22 07:20:42;;;;;;;8.00;1.92;;;6.10;99.90;;;;;;5056128;28;20049;-63
2022/01/22 07:23:31;;;;;;;7.72;2.15;;;6.10;99.90;;;;;;5065138;28;20049;-64
2022/01/22 07:25:56;;;;;;;7.50;1.90;;;6.20;99.90;;;;;;5041047;28;20657;-63
2022/01/22 07:28:22;;;;;;;5.30;1.45;;;6.10;99.90;;;;;;5042188;28;20239;-64
2022/01/22 07:30:48;;;;;;;6.35;1.35;;;6.10;99.90;;;;;;5037880;28;20117;-63
2022/01/22 07:33:15;;;;;;;4.95;1.40;;;6.10;99.90;;;;;;5058017;28;20045;-63
2022/01/22 07:35:40;;;;;;;6.90;1.10;;;6.10;99.90;;;;;;5041511;28;20037;-63
2022/01/22 07:38:06;;;;;;;5.10;1.17;;;6.10;99.90;;;;;;5037324;28;20121;-63
2022/01/22 07:40:32;;;;;;;4.65;1.10;;;6.10;99.90;;;;;;5047381;28;20656;-63
2022/01/22 07:42:57;;;;;;;2.72;1.02;;;6.10;99.90;;;;;;5046240;28;20056;-64
2022/01/22 07:45:23;;;;;;;0.90;0.60;;;6.20;99.90;;;;;;5045626;28;20044;-65
2022/01/22 07:47:49;;;;;;;5.85;0.90;;;6.10;99.90;;;;;;5035948;28;20059;-63
2022/01/22 07:50:14;;;;;;;6.55;0.95;;;6.10;99.90;;;;;;5046417;28;20127;-64
2022/01/22 07:52:40;;;;;;;3.60;0.70;;;6.10;99.90;;;;;;5043987;28;20409;-64
2022/01/22 07:55:07;;;;;;;5.10;1.55;;;6.20;99.90;;;;;;5041420;28;20037;-63
2022/01/22 07:57:33;;;;;;;2.33;1.35;;;6.10;99.90;;;;;;5042576;28;20091;-64
2022/01/22 07:59:58;;;;;;;4.03;1.15;;;6.20;99.90;;;;;;5047053;28;20041;-63
2022/01/22 08:02:24;;;;;;;6.05;1.40;;;6.10;99.90;;;;;;5041007;28;20447;-67
2022/01/22 08:04:49;;;;;;;4.70;1.52;;;6.10;99.90;;;;;;5048114;28;20083;-64
2022/01/22 08:07:16;;;;;;;6.97;1.75;;;6.10;99.90;;;;;;5039998;28;20106;-64
2022/01/22 08:09:45;;;;;;;6.40;1.20;;;6.10;99.90;;;;;;5042852;28;20767;-65
2022/01/22 08:12:11;;;;;;;4.75;1.50;;;6.10;99.90;;;;;;5060162;28;20129;-65
2022/01/22 08:14:37;;;;;;;3.58;1.23;;;6.10;99.90;;;;;;5029144;28;20059;-64
2022/01/22 08:17:03;;;;;;;7.55;1.92;;;6.10;99.90;;;;;;5046810;28;20048;-64
2022/01/22 08:19:28;;;;;;;5.10;1.25;;;6.10;99.90;;;;;;5032013;28;20037;-63
2022/01/22 08:21:54;;;;;;;6.43;1.25;;;6.10;99.90;;;;;;5029141;28;20038;-64
2022/01/22 08:24:24;;;;;;;4.43;1.20;;;6.20;99.90;;;;;;5028997;28;20041;-63
2022/01/22 08:27:04;;;;;;;5.35;1.30;;;6.20;99.90;;;;;;5032349;28;20493;-63
2022/01/22 08:29:29;;;;;;;3.00;1.10;;;6.20;99.90;;;;;;5032783;28;20082;-64
2022/01/22 08:37:31;;;;;;;3.10;1.27;;;6.20;99.90;;;;;;5065589;28;20068;-64
2022/01/22 08:39:56;;;;;;;4.07;1.30;;;6.20;99.90;;;;;;5047934;28;20068;-66
2022/01/22 08:42:24;;;;;;;4.90;1.50;;;6.20;99.90;;;;;;5045635;28;20041;-64
2022/01/22 08:44:49;;;;;;;4.78;1.60;;;6.20;99.90;;;;;;5048878;28;20065;-64
2022/01/22 08:47:15;;;;;;;4.07;1.63;;;6.30;99.90;;;;;;5045300;28;20475;-64
2022/01/22 08:49:41;;;;;;;5.18;1.40;;;6.30;99.90;;;;;;5046059;28;20453;-64
2022/01/22 08:52:15;;;;;;;5.15;1.80;;;6.30;99.90;;;;;;5031615;28;20174;-64
2022/01/22 08:54:42;;;;;;;5.00;1.50;;;6.30;99.90;;;;;;5031566;28;20112;-64
2022/01/22 08:57:09;;;;;;;4.05;1.13;;;6.30;99.90;;;;;;5039773;28;20392;-65
2022/01/22 08:59:35;;;;;;;4.15;1.13;;;6.30;99.90;;;;;;5048275;28;20040;-64
2022/01/22 09:02:01;;;;;;;3.28;1.17;;;6.30;99.90;;;;;;5046709;28;20128;-63
2022/01/22 09:04:27;;;;;;;2.95;1.15;;;6.40;99.90;;;;;;5031435;28;20049;-64
2022/01/22 09:06:53;;;;;;;6.13;1.10;;;6.40;99.90;;;;;;5029388;28;20094;-63
2022/01/22 09:09:19;;;;;;;3.22;1.17;;;6.40;99.90;;;;;;5045207;28;20106;-63
2022/01/22 09:11:46;;;;;;;7.28;1.17;;;6.50;99.90;;;;;;5047185;28;20091;-64
2022/01/22 09:14:14;;;;;;;5.30;1.23;;;6.50;99.90;;;;;;5032293;28;20041;-64
2022/01/22 09:16:41;;;;;;;2.53;1.05;;;6.50;99.90;;;;;;5047357;28;20041;-64
2022/01/22 09:19:10;;;;;;;2.25;1.05;;;6.50;99.90;;;;;;5034356;28;20045;-64
2022/01/22 09:21:39;;;;;;;4.43;1.20;;;6.50;99.90;;;;;;5043545;28;20045;-65
2022/01/22 09:24:05;;;;;;;5.80;1.20;;;6.60;99.90;;;;;;5040440;28;20037;-64
2022/01/22 09:26:31;;;;;;;3.05;1.08;;;6.60;99.90;;;;;;5033966;28;20163;-64
2022/01/22 09:28:59;;;;;;;7.65;1.38;;;6.60;99.90;;;;;;5043630;28;20026;-64
2022/01/22 09:31:26;;;;;;;5.45;1.58;;;6.60;99.90;;;;;;5027859;28;20072;-64
2022/01/22 09:33:55;;;;;;;4.20;1.08;;;6.70;99.90;;;;;;5027375;28;20034;-64
2022/01/22 09:36:21;;;;;;;7.35;1.65;;;6.70;99.90;;;;;;5041613;28;20500;-64
2022/01/22 09:38:46;;;;;;;8.35;1.38;;;6.70;99.90;;;;;;5045120;28;20037;-63
2022/01/22 09:41:14;;;;;;;7.05;1.30;;;6.80;99.90;;;;;;5027561;28;20041;-64
2022/01/22 09:43:40;;;;;;;5.55;1.48;;;6.80;99.90;;;;;;5045157;28;20120;-63
2022/01/22 09:46:08;;;;;;;6.10;1.15;;;6.90;99.90;;;;;;5027902;28;20505;-64
2022/01/22 09:48:33;;;;;;;7.78;1.52;;;6.90;99.90;;;;;;5041114;28;20033;-63
2022/01/22 09:50:59;;;;;;;8.18;1.42;;;6.90;99.90;;;;;;5047981;28;20483;-64
2022/01/22 09:53:24;;;;;;;4.03;1.40;;;6.90;99.90;;;;;;5045031;28;20060;-64
2022/01/22 09:55:51;;;;;;;8.15;1.38;;;6.90;99.90;;;;;;5045831;28;20044;-63
2022/01/22 09:58:16;;;;;;;4.35;1.10;;;6.90;99.90;;;;;;5046643;28;20079;-63
2022/01/22 10:00:42;;;;;;;4.90;1.20;;;7.00;99.90;;;;;;5046438;28;20044;-63
2022/01/22 10:03:19;;;;;;;5.72;1.38;;;6.90;99.90;;;;;;5047223;28;20095;-64
2022/01/22 10:05:45;;;;;;;4.00;1.50;;;6.90;99.90;;;;;;5045815;28;20476;-64
2022/01/22 10:08:36;;;;;;;7.82;1.45;;;6.90;99.90;;;;;;5046528;28;20072;-63
2022/01/22 10:11:02;;;;;;;3.55;1.38;;;6.90;99.90;;;;;;5065072;28;20064;-64
2022/01/22 10:13:41;;;;;;;6.03;1.80;;;6.80;99.90;;;;;;5040567;28;20045;-63
2022/01/22 10:16:34;;;;;;;8.18;1.85;;;6.80;99.90;;;;;;5030092;28;20048;-65
2022/01/22 10:19:17;;;;;;;10.52;2.83;;;6.80;99.90;;;;;;5046717;28;20052;-64
2022/01/22 10:21:48;;;;;;;3.88;1.70;;;6.80;99.90;;;;;;5029221;28;20029;-65
2022/01/22 10:24:50;;;;;;;9.90;1.70;;;6.80;99.90;;;;;;5039865;28;20107;-65
2022/01/22 10:27:24;;;;;;;6.45;1.85;;;6.90;99.90;;;;;;5035279;28;20044;-63
2022/01/22 10:30:03;;;;;;;6.63;1.70;;;6.90;99.90;;;;;;5046153;28;20103;-63
2022/01/22 10:35:25;;;;;;;6.13;2.10;;;6.90;99.90;;;;;;5047540;28;20057;-63
2022/01/22 10:37:55;;;;;;;11.60;3.03;;;6.90;99.90;;;;;;5046965;28;20452;-65
2022/01/22 10:40:26;;;;;;;7.18;1.92;;;7.00;99.90;;;;;;5039914;28;20486;-65
2022/01/22 10:42:52;;;;;;;4.53;1.70;;;7.00;99.90;;;;;;5049668;28;20040;-64
2022/01/22 10:45:29;;;;;;;6.93;1.70;;;7.00;99.90;;;;;;5050054;28;20595;-63
2022/01/22 10:48:17;;;;;;;5.85;1.67;;;7.00;99.90;;;;;;5048844;28;20037;-63
2022/01/22 10:50:43;;;;;;;6.53;2.00;;;7.10;99.90;;;;;;5035328;28;20129;-64
2022/01/22 10:53:08;;;;;;;4.93;1.58;;;7.00;99.90;;;;;;5049116;28;20704;-63
2022/01/22 10:56:01;;;;;;;4.07;1.40;;;7.10;99.90;;;;;;5047870;28;20052;-64
2022/01/22 10:58:27;;;;;;;4.18;1.90;;;7.10;99.90;;;;;;5046998;28;20120;-64
2022/01/22 11:01:03;;;;;;;5.63;1.70;;;7.10;99.90;;;;;;5036386;28;20124;-63
2022/01/22 11:03:29;;;;;;;3.90;1.40;;;7.20;99.90;;;;;;5047978;28;20041;-64
2022/01/22 11:05:59;;;;;;;3.63;1.83;;;7.20;99.90;;;;;;5051056;28;20152;-64
2022/01/22 11:08:28;;;;;;;6.43;1.77;;;7.30;99.90;;;;;;5044281;28;20041;-65
2022/01/22 11:10:54;;;;;;;5.07;1.70;;;7.20;99.90;;;;;;5047806;28;20149;-64
2022/01/22 11:13:19;;;;;;;4.47;1.90;;;7.30;99.90;;;;;;5046395;28;20132;-63
2022/01/22 11:15:48;;;;;;;6.65;1.52;;;7.30;99.90;;;;;;5042533;28;20033;-64
2022/01/22 11:18:16;;;;;;;7.07;1.38;;;7.30;99.90;;;;;;5049279;28;20422;-64
2022/01/22 11:20:43;;;;;;;7.13;1.92;;;7.20;99.90;;;;;;5041863;28;20052;-64
2022/01/22 11:23:08;;;;;;;6.63;1.77;;;7.20;99.90;;;;;;5048469;28;20132;-65
2022/01/22 11:25:35;;;;;;;4.40;1.40;;;7.20;99.90;;;;;;5048185;28;20111;-64
2022/01/22 11:28:02;;;;;;;5.75;1.73;;;7.10;99.90;;;;;;5048527;28;20075;-64
2022/01/22 11:30:29;;;;;;;4.05;1.75;;;7.10;99.90;;;;;;5047793;28;20044;-63
2022/01/22 11:33:02;;;;;;;8.73;1.70;;;7.10;99.90;;;;;;5042584;28;20045;-64
2022/01/22 11:35:42;;;;;;;5.63;1.90;;;7.00;99.90;;;;;;5064940;28;20056;-64
2022/01/22 11:38:10;;;;;;;5.07;1.90;;;7.00;99.90;;;;;;5047461;28;20045;-64
2022/01/22 11:40:36;;;;;;;5.75;1.73;;;7.00;99.90;;;;;;5043051;28;20048;-64
2022/01/22 11:43:13;;;;;;;4.03;1.80;;;7.00;99.90;;;;;;5049367;28;20467;-65
2022/01/22 11:45:44;;;;;;;9.73;2.10;;;7.00;99.90;;;;;;5045024;28;20064;-64
2022/01/22 11:48:15;;;;;;;5.43;1.98;;;7.00;99.90;;;;;;5046192;28;20048;-65
2022/01/22 11:50:42;;;;;;;7.57;2.10;;;6.90;99.90;;;;;;5046512;28;20045;-64
2022/01/22 11:53:30;;;;;;;8.30;2.28;;;6.90;99.90;;;;;;5047000;28;20036;-64
2022/01/22 11:56:11;;;;;;;6.38;2.40;;;6.90;99.90;;;;;;5044291;28;20040;-65
2022/01/22 11:58:55;;;;;;;7.88;2.28;;;6.90;99.90;;;;;;5037537;28;20389;-64
2022/01/22 12:01:45;;;;;;;7.47;2.75;;;6.90;99.90;;;;;;5041012;28;20453;-63
2022/01/22 12:04:14;;;;;;;8.77;3.20;;;6.90;99.90;;;;;;5044708;28;20091;-64
2022/01/22 12:07:00;;;;;;;9.23;2.67;;;6.90;99.90;;;;;;5047454;28;20147;-63
2022/01/22 12:09:26;;;;;;;8.43;3.00;;;6.90;99.90;;;;;;5046614;28;20061;-65
2022/01/22 12:14:47;;;;;;;10.10;3.22;;;7.00;99.90;;;;;;5045781;28;20051;-64
2022/01/22 12:17:18;;;;;;;8.40;3.20;;;7.00;99.90;;;;;;5030005;28;20049;-63
2022/01/22 12:22:47;;;;;;;8.90;3.60;;;7.00;99.90;;;;;;5039591;28;20052;-64
2022/01/22 12:25:15;;;;;;;12.20;3.60;;;6.90;99.90;;;;;;5044053;28;20591;-63
2022/01/22 12:27:46;;;;;;;9.95;4.10;;;6.90;99.90;;;;;;5047934;28;20036;-63
2022/01/22 12:30:13;;;;;;;10.00;3.53;;;6.90;99.90;;;;;;5044799;28;20675;-64
2022/01/22 12:32:47;;;;;;;9.02;3.92;;;6.90;99.90;;;;;;5046324;28;20040;-64
2022/01/22 12:35:18;;;;;;;11.63;3.78;;;6.90;99.90;;;;;;5031967;28;20033;-64
2022/01/22 12:37:50;;;;;;;11.68;4.07;;;6.90;99.90;;;;;;5046479;28;20043;-63
2022/01/22 12:40:31;;;;;;;11.52;3.90;;;6.90;99.90;;;;;;5046343;28;20166;-64
2022/01/22 12:43:08;;;;;;;10.90;3.60;;;6.90;99.90;;;;;;5020085;28;20044;-64
2022/01/22 12:45:35;;;;;;;12.70;5.38;;;6.80;99.90;;;;;;5046919;28;20048;-63
2022/01/22 12:48:02;;;;;;;14.73;4.50;;;6.90;99.90;;;;;;5046291;28;20091;-64
2022/01/22 12:50:31;;;;;;;9.50;3.67;;;6.80;99.90;;;;;;5044093;28;20539;-63
2022/01/22 12:53:03;;;;;;;9.07;4.28;;;6.80;99.90;;;;;;5047868;28;20435;-64
2022/01/22 12:56:00;;;;;;;14.75;4.70;;;6.80;99.90;;;;;;5045364;28;20043;-63
2022/01/22 12:58:29;;;;;;;18.70;4.75;;;6.90;99.90;;;;;;5045855;28;20041;-63
2022/01/22 13:01:19;;;;;;;12.13;4.53;;;6.90;99.90;;;;;;5047805;28;20037;-65
2022/01/22 13:03:47;;;;;;;13.40;4.47;;;6.90;99.90;;;;;;5029684;28;20037;-64
2022/01/22 13:06:14;;;;;;;10.20;3.85;;;6.90;99.90;;;;;;5057343;28;20540;-64
2022/01/22 13:08:40;;;;;;;10.77;4.28;;;6.90;99.90;;;;;;5060197;28;20044;-65
2022/01/22 13:11:08;;;;;;;16.30;6.57;;;6.90;99.90;;;;;;5046280;28;20087;-64
2022/01/22 13:13:35;;;;;;;17.75;7.88;;;6.90;99.90;;;;;;5031317;28;20036;-63
2022/01/22 13:16:10;;;;;;;21.27;10.60;;;6.90;99.90;;;;;;5044544;28;20136;-64
2022/01/22 13:18:58;;;;;;;18.45;9.23;;;6.90;99.90;;;;;;5062017;28;20043;-64
2022/01/22 13:21:26;;;;;;;28.58;14.50;;;6.90;99.90;;;;;;5031007;28;20155;-63
2022/01/22 13:24:07;;;;;;;29.17;16.35;;;6.90;99.90;;;;;;5029739;28;20118;-64
2022/01/22 13:26:44;;;;;;;31.45;18.05;;;6.90;99.90;;;;;;5031394;28;20409;-64
2022/01/22 13:29:23;;;;;;;33.70;16.75;;;6.80;99.90;;;;;;5030374;28;20056;-63
2022/01/22 13:32:19;;;;;;;25.25;15.90;;;6.80;99.90;;;;;;5031665;28;20382;-63
2022/01/22 13:35:18;;;;;;;19.40;12.25;;;6.80;99.90;;;;;;5032125;28;20447;-64
2022/01/22 13:48:57;;;;;;;16.23;7.75;;;7.00;99.90;;;;;;5063526;28;20041;-64
2022/01/22 13:51:24;;;;;;;16.80;8.90;;;6.90;99.90;;;;;;5045192;28;20072;-64
2022/01/22 13:53:50;;;;;;;18.65;8.10;;;7.00;99.90;;;;;;5043195;28;20422;-63
2022/01/22 13:56:17;;;;;;;18.98;6.47;;;7.00;99.90;;;;;;5047717;28;20132;-63
2022/01/22 13:58:43;;;;;;;11.15;4.90;;;7.00;99.90;;;;;;5060370;28;20375;-63
2022/01/22 14:01:44;;;;;;;11.00;4.15;;;7.00;99.90;;;;;;5063234;28;20060;-64
2022/01/22 14:04:11;;;;;;;21.05;4.50;;;7.00;99.90;;;;;;5029391;28;20120;-63
2022/01/22 14:06:37;;;;;;;11.38;4.68;;;7.00;99.90;;;;;;5028054;28;20107;-63
2022/01/22 14:09:21;;;;;;;14.48;5.22;;;7.00;99.90;;;;;;5046402;28;20068;-63
2022/01/22 14:12:03;;;;;;;13.45;4.45;;;7.00;99.90;;;;;;5063168;28;20045;-63
2022/01/22 14:14:31;;;;;;;10.32;3.50;;;6.90;99.90;;;;;;5046919;28;20057;-64
2022/01/22 14:17:12;;;;;;;8.63;3.28;;;6.90;99.90;;;;;;5043379;28;20045;-63
2022/01/22 14:19:38;;;;;;;7.78;3.00;;;6.80;99.90;;;;;;5046045;28;20045;-64
2022/01/22 14:22:03;;;;;;;7.78;2.20;;;6.80;99.90;;;;;;5047333;28;20373;-63
2022/01/22 14:24:30;;;;;;;7.65;2.25;;;6.70;99.90;;;;;;5043716;28;20041;-65
2022/01/22 14:26:56;;;;;;;10.23;2.35;;;6.70;99.90;;;;;;5028040;28;20048;-63
2022/01/22 14:29:21;;;;;;;6.38;1.98;;;6.60;99.90;;;;;;5057785;28;20037;-64
2022/01/22 14:31:51;;;;;;;12.10;4.35;;;6.70;99.90;;;;;;5043552;28;20053;-63
2022/01/22 14:34:32;;;;;;;11.00;4.40;;;6.60;99.90;;;;;;5046628;28;20037;-63
2022/01/22 14:36:59;;;;;;;14.18;4.18;;;6.60;99.90;;;;;;5029834;28;20203;-64
2022/01/22 14:43:48;;;;;;;10.63;3.95;;;6.70;99.90;;;;;;5037950;28;20557;-63